sensor_id;sensor_type;location;lat;lon;timestamp;pressure;altitude;pressure_sealevel;temperature;humidity
46430;BME280;32131;53.454;-6.180;2023-03-21T00:01:50;100276.16;;;9.24;100.00
46430;BME280;32131;53.454;-6.180;2023-03-21T00:04:19;100273.53;;;9.21;100.00
46430;BME280;32131;53.454;-6.180;2023-03-21T00:06:48;100271.78;;;9.18;100.00
46430;BME280;32131;53.454;-6.180;2023-03-21T00:09:16;100263.16;;;9.15;100.00
46430;BME280;32131;53.454;-6.180;2023-03-21T00:11:46;100266.56;;;9.10;100.00
46430;BME280;32131;53.454;-6.180;2023-03-21T00:14:15;100265.66;;;9.08;100.00
46430;BME280;32131;53.454;-6.180;2023-03-21T00:16:45;100266.44;;;9.04;100.00
46430;BME280;32131;53.454;-6.180;2023-03-21T00:19:17;100263.84;;;9.03;100.00
46430;BME280;32131;53.454;-6.180;2023-03-21T00:21:46;100265.53;;;8.99;100.00
46430;BME280;32131;53.454;-6.180;2023-03-21T00:24:33;100250.09;;;9.01;100.00
46430;BME280;32131;53.454;-6.180;2023-03-21T00:27:02;100249.19;;;8.99;100.00
46430;BME280;32131;53.454;-6.180;2023-03-21T00:29:50;100250.91;;;8.98;100.00
46430;BME280;32131;53.454;-6.180;2023-03-21T00:32:21;100248.25;;;8.92;100.00
46430;BME280;32131;53.454;-6.180;2023-03-21T00:34:51;100244.66;;;8.80;100.00
46430;BME280;32131;53.454;-6.180;2023-03-21T00:37:39;100239.34;;;8.71;100.00
46430;BME280;32131;53.454;-6.180;2023-03-21T00:40:08;100231.56;;;8.65;100.00
46430;BME280;32131;53.454;-6.180;2023-03-21T00:42:51;100235.72;;;8.57;100.00
46430;BME280;32131;53.454;-6.180;2023-03-21T00:45:19;100233.91;;;8.51;100.00
46430;BME280;32131;53.454;-6.180;2023-03-21T00:47:48;100237.31;;;8.48;100.00
46430;BME280;32131;53.454;-6.180;2023-03-21T00:50:17;100227.75;;;8.44;100.00
46430;BME280;32131;53.454;-6.180;2023-03-21T00:52:46;100225.16;;;8.43;100.00
46430;BME280;32131;53.454;-6.180;2023-03-21T00:55:16;100230.38;;;8.46;100.00
46430;BME280;32131;53.454;-6.180;2023-03-21T00:57:45;100228.63;;;8.45;100.00
46430;BME280;32131;53.454;-6.180;2023-03-21T01:00:26;100227.84;;;8.47;100.00
46430;BME280;32131;53.454;-6.180;2023-03-21T01:02:55;100215.88;;;8.49;100.00
46430;BME280;32131;53.454;-6.180;2023-03-21T01:05:46;100209.97;;;8.55;100.00
46430;BME280;32131;53.454;-6.180;2023-03-21T01:08:34;100209.22;;;8.64;100.00
46430;BME280;32131;53.454;-6.180;2023-03-21T01:11:20;100198.19;;;8.71;100.00
46430;BME280;32131;53.454;-6.180;2023-03-21T01:13:48;100193.97;;;8.76;100.00
46430;BME280;32131;53.454;-6.180;2023-03-21T01:16:25;100188.03;;;8.82;100.00
46430;BME280;32131;53.454;-6.180;2023-03-21T01:18:53;100187.25;;;8.88;100.00
46430;BME280;32131;53.454;-6.180;2023-03-21T01:21:25;100183.91;;;8.95;100.00
46430;BME280;32131;53.454;-6.180;2023-03-21T01:23:53;100178.88;;;9.03;100.00
46430;BME280;32131;53.454;-6.180;2023-03-21T01:26:21;100174.69;;;9.11;100.00
46430;BME280;32131;53.454;-6.180;2023-03-21T01:28:50;100167.00;;;9.16;100.00
46430;BME280;32131;53.454;-6.180;2023-03-21T01:31:18;100165.31;;;9.18;100.00
46430;BME280;32131;53.454;-6.180;2023-03-21T01:33:48;100168.75;;;9.17;100.00
46430;BME280;32131;53.454;-6.180;2023-03-21T01:36:18;100165.28;;;9.16;100.00
46430;BME280;32131;53.454;-6.180;2023-03-21T01:38:52;100156.66;;;9.12;100.00
46430;BME280;32131;53.454;-6.180;2023-03-21T01:41:26;100154.91;;;9.08;100.00
46430;BME280;32131;53.454;-6.180;2023-03-21T01:44:13;100149.69;;;9.02;100.00
46430;BME280;32131;53.454;-6.180;2023-03-21T01:46:43;100150.50;;;9.00;100.00
46430;BME280;32131;53.454;-6.180;2023-03-21T01:49:37;100143.59;;;8.95;100.00
46430;BME280;32131;53.454;-6.180;2023-03-21T01:52:10;100145.28;;;8.93;100.00
46430;BME280;32131;53.454;-6.180;2023-03-21T01:54:54;100149.59;;;8.94;100.00
46430;BME280;32131;53.454;-6.180;2023-03-21T01:57:26;100142.72;;;8.95;100.00
46430;BME280;32131;53.454;-6.180;2023-03-21T02:00:13;100142.75;;;8.98;100.00
46430;BME280;32131;53.454;-6.180;2023-03-21T02:02:43;100141.03;;;8.99;100.00
46430;BME280;32131;53.454;-6.180;2023-03-21T02:05:21;100137.66;;;9.01;100.00
46430;BME280;32131;53.454;-6.180;2023-03-21T02:07:51;100124.78;;;9.03;100.00
46430;BME280;32131;53.454;-6.180;2023-03-21T02:10:21;100120.50;;;9.03;100.00
46430;BME280;32131;53.454;-6.180;2023-03-21T02:12:49;100114.50;;;9.03;100.00
46430;BME280;32131;53.454;-6.180;2023-03-21T02:15:22;100096.47;;;9.04;100.00
46430;BME280;32131;53.454;-6.180;2023-03-21T02:17:55;100093.00;;;8.99;100.00
46430;BME280;32131;53.454;-6.180;2023-03-21T02:23:50;100079.06;;;8.81;100.00
46430;BME280;32131;53.454;-6.180;2023-03-21T02:26:46;100080.72;;;8.79;100.00
46430;BME280;32131;53.454;-6.180;2023-03-21T02:29:59;100066.19;;;8.81;100.00
46430;BME280;32131;53.454;-6.180;2023-03-21T02:32:40;100073.78;;;8.74;100.00
46430;BME280;32131;53.454;-6.180;2023-03-21T02:35:30;100059.06;;;8.62;100.00
46430;BME280;32131;53.454;-6.180;2023-03-21T02:38:14;100064.91;;;8.48;100.00
46430;BME280;32131;53.454;-6.180;2023-03-21T02:40:50;100059.59;;;8.39;100.00
46430;BME280;32131;53.454;-6.180;2023-03-21T02:43:29;100056.06;;;8.31;100.00
46430;BME280;32131;53.454;-6.180;2023-03-21T02:46:04;100054.34;;;8.30;100.00
46430;BME280;32131;53.454;-6.180;2023-03-21T02:48:37;100045.78;;;8.32;100.00
46430;BME280;32131;53.454;-6.180;2023-03-21T02:51:18;100044.16;;;8.38;100.00
46430;BME280;32131;53.454;-6.180;2023-03-21T02:53:52;100038.19;;;8.42;100.00
46430;BME280;32131;53.454;-6.180;2023-03-21T02:56:43;100043.44;;;8.48;100.00
46430;BME280;32131;53.454;-6.180;2023-03-21T02:59:15;100032.38;;;8.54;100.00
46430;BME280;32131;53.454;-6.180;2023-03-21T03:01:45;100025.59;;;8.59;100.00
46430;BME280;32131;53.454;-6.180;2023-03-21T03:04:18;100024.75;;;8.61;100.00
46430;BME280;32131;53.454;-6.180;2023-03-21T03:06:59;100035.91;;;8.60;100.00
46430;BME280;32131;53.454;-6.180;2023-03-21T03:09:41;100028.19;;;8.62;100.00
46430;BME280;32131;53.454;-6.180;2023-03-21T03:12:21;100011.91;;;8.63;100.00
46430;BME280;32131;53.454;-6.180;2023-03-21T03:15:02;100017.88;;;8.62;100.00
46430;BME280;32131;53.454;-6.180;2023-03-21T03:17:44;100005.06;;;8.63;100.00
46430;BME280;32131;53.454;-6.180;2023-03-21T03:20:19;100000.75;;;8.62;100.00
46430;BME280;32131;53.454;-6.180;2023-03-21T03:22:56;100000.66;;;8.55;100.00
46430;BME280;32131;53.454;-6.180;2023-03-21T03:25:31;100004.91;;;8.49;100.00
46430;BME280;32131;53.454;-6.180;2023-03-21T03:28:10;99994.44;;;8.40;100.00
46430;BME280;32131;53.454;-6.180;2023-03-21T03:30:41;100001.22;;;8.32;100.00
46430;BME280;32131;53.454;-6.180;2023-03-21T03:33:30;99998.56;;;8.26;100.00
46430;BME280;32131;53.454;-6.180;2023-03-21T03:36:01;100003.78;;;8.30;100.00
46430;BME280;32131;53.454;-6.180;2023-03-21T03:38:33;99996.00;;;8.29;100.00
46430;BME280;32131;53.454;-6.180;2023-03-21T03:41:08;99982.25;;;8.24;100.00
46430;BME280;32131;53.454;-6.180;2023-03-21T03:43:39;99981.41;;;8.26;100.00
46430;BME280;32131;53.454;-6.180;2023-03-21T03:46:15;99975.50;;;8.32;100.00
46430;BME280;32131;53.454;-6.180;2023-03-21T03:48:48;99971.19;;;8.31;100.00
46430;BME280;32131;53.454;-6.180;2023-03-21T03:51:21;99965.19;;;8.32;100.00
46430;BME280;32131;53.454;-6.180;2023-03-21T03:53:55;99967.88;;;8.41;100.00
46430;BME280;32131;53.454;-6.180;2023-03-21T03:56:25;99968.88;;;8.49;100.00
46430;BME280;32131;53.454;-6.180;2023-03-21T03:58:55;99968.97;;;8.59;100.00
46430;BME280;32131;53.454;-6.180;2023-03-21T04:01:23;99962.16;;;8.64;100.00
46430;BME280;32131;53.454;-6.180;2023-03-21T04:03:52;99953.66;;;8.68;100.00
46430;BME280;32131;53.454;-6.180;2023-03-21T04:06:38;99950.22;;;8.71;100.00
46430;BME280;32131;53.454;-6.180;2023-03-21T04:09:08;99945.09;;;8.72;100.00
46430;BME280;32131;53.454;-6.180;2023-03-21T04:11:50;99942.53;;;8.74;100.00
46430;BME280;32131;53.454;-6.180;2023-03-21T04:14:18;99942.56;;;8.77;100.00
46430;BME280;32131;53.454;-6.180;2023-03-21T04:16:46;99931.41;;;8.76;100.00
46430;BME280;32131;53.454;-6.180;2023-03-21T04:19:15;99934.84;;;8.78;100.00
46430;BME280;32131;53.454;-6.180;2023-03-21T04:21:44;99935.75;;;8.80;100.00
46430;BME280;32131;53.454;-6.180;2023-03-21T04:24:13;99923.75;;;8.81;100.00
46430;BME280;32131;53.454;-6.180;2023-03-21T04:26:43;99910.88;;;8.83;100.00
46430;BME280;32131;53.454;-6.180;2023-03-21T04:29:13;99911.72;;;8.83;100.00
46430;BME280;32131;53.454;-6.180;2023-03-21T04:31:41;99909.16;;;8.80;100.00
46430;BME280;32131;53.454;-6.180;2023-03-21T04:34:09;99909.06;;;8.74;100.00
46430;BME280;32131;53.454;-6.180;2023-03-21T04:36:38;99902.16;;;8.68;100.00
46430;BME280;32131;53.454;-6.180;2023-03-21T04:39:09;99900.41;;;8.62;100.00
46430;BME280;32131;53.454;-6.180;2023-03-21T04:41:39;99893.44;;;8.54;100.00
46430;BME280;32131;53.454;-6.180;2023-03-21T04:44:07;99895.91;;;8.46;100.00
46430;BME280;32131;53.454;-6.180;2023-03-21T04:46:37;99889.88;;;8.45;100.00
46430;BME280;32131;53.454;-6.180;2023-03-21T04:49:06;99892.53;;;8.47;100.00
46430;BME280;32131;53.454;-6.180;2023-03-21T04:51:35;99898.56;;;8.51;100.00
46430;BME280;32131;53.454;-6.180;2023-03-21T04:54:03;99897.72;;;8.53;100.00
46430;BME280;32131;53.454;-6.180;2023-03-21T04:56:33;99896.09;;;8.60;100.00
46430;BME280;32131;53.454;-6.180;2023-03-21T04:59:05;99893.56;;;8.66;100.00
46430;BME280;32131;53.454;-6.180;2023-03-21T05:01:33;99899.59;;;8.70;100.00
46430;BME280;32131;53.454;-6.180;2023-03-21T05:04:03;99895.34;;;8.72;100.00
46430;BME280;32131;53.454;-6.180;2023-03-21T05:06:32;99897.97;;;8.78;100.00
46430;BME280;32131;53.454;-6.180;2023-03-21T05:09:00;99899.69;;;8.80;100.00
46430;BME280;32131;53.454;-6.180;2023-03-21T05:11:32;99900.59;;;8.83;100.00
46430;BME280;32131;53.454;-6.180;2023-03-21T05:14:01;99898.00;;;8.84;100.00
46430;BME280;32131;53.454;-6.180;2023-03-21T05:16:30;99895.44;;;8.84;100.00
46430;BME280;32131;53.454;-6.180;2023-03-21T05:19:01;99879.16;;;8.85;100.00
46430;BME280;32131;53.454;-6.180;2023-03-21T05:21:32;99881.72;;;8.84;100.00
46430;BME280;32131;53.454;-6.180;2023-03-21T05:24:07;99878.25;;;8.81;100.00
46430;BME280;32131;53.454;-6.180;2023-03-21T05:26:39;99870.53;;;8.80;100.00
46430;BME280;32131;53.454;-6.180;2023-03-21T05:29:07;99862.81;;;8.81;100.00
46430;BME280;32131;53.454;-6.180;2023-03-21T05:31:36;99863.69;;;8.84;100.00
46430;BME280;32131;53.454;-6.180;2023-03-21T05:34:05;99868.00;;;8.85;100.00
46430;BME280;32131;53.454;-6.180;2023-03-21T05:36:36;99872.31;;;8.87;100.00
46430;BME280;32131;53.454;-6.180;2023-03-21T05:39:07;99874.91;;;8.92;100.00
46430;BME280;32131;53.454;-6.180;2023-03-21T05:41:35;99875.75;;;8.91;100.00
46430;BME280;32131;53.454;-6.180;2023-03-21T05:44:04;99872.34;;;8.92;100.00
46430;BME280;32131;53.454;-6.180;2023-03-21T05:46:33;99869.78;;;8.95;100.00
46430;BME280;32131;53.454;-6.180;2023-03-21T05:49:02;99869.78;;;8.95;100.00
46430;BME280;32131;53.454;-6.180;2023-03-21T05:51:30;99874.09;;;8.96;100.00
46430;BME280;32131;53.454;-6.180;2023-03-21T05:53:59;99862.94;;;8.97;100.00
46430;BME280;32131;53.454;-6.180;2023-03-21T05:56:28;99879.28;;;8.99;100.00
46430;BME280;32131;53.454;-6.180;2023-03-21T05:58:56;99881.84;;;8.99;100.00
46430;BME280;32131;53.454;-6.180;2023-03-21T06:01:24;99885.31;;;9.01;100.00
46430;BME280;32131;53.454;-6.180;2023-03-21T06:03:52;99881.00;;;9.03;100.00
46430;BME280;32131;53.454;-6.180;2023-03-21T06:06:20;99882.75;;;9.06;100.00
46430;BME280;32131;53.454;-6.180;2023-03-21T06:08:48;99882.81;;;9.10;100.00
46430;BME280;32131;53.454;-6.180;2023-03-21T06:11:23;99882.81;;;9.15;100.00
46430;BME280;32131;53.454;-6.180;2023-03-21T06:13:52;99874.22;;;9.16;100.00
46430;BME280;32131;53.454;-6.180;2023-03-21T06:16:20;99880.31;;;9.23;100.00
46430;BME280;32131;53.454;-6.180;2023-03-21T06:18:49;99894.06;;;9.28;100.00
46430;BME280;32131;53.454;-6.180;2023-03-21T06:21:18;99882.94;;;9.31;100.00
46430;BME280;32131;53.454;-6.180;2023-03-21T06:23:47;99890.72;;;9.37;100.00
46430;BME280;32131;53.454;-6.180;2023-03-21T06:26:17;99889.00;;;9.40;100.00
46430;BME280;32131;53.454;-6.180;2023-03-21T06:28:51;99904.47;;;9.42;100.00
46430;BME280;32131;53.454;-6.180;2023-03-21T06:31:20;99904.50;;;9.43;100.00
46430;BME280;32131;53.454;-6.180;2023-03-21T06:33:48;99908.81;;;9.46;100.00
46430;BME280;32131;53.454;-6.180;2023-03-21T06:36:18;99903.69;;;9.51;100.00
46430;BME280;32131;53.454;-6.180;2023-03-21T06:38:46;99913.16;;;9.52;100.00
46430;BME280;32131;53.454;-6.180;2023-03-21T06:41:15;99916.56;;;9.51;100.00
46430;BME280;32131;53.454;-6.180;2023-03-21T06:43:43;99914.81;;;9.47;100.00
46430;BME280;32131;53.454;-6.180;2023-03-21T06:46:15;99929.31;;;9.34;100.00
46430;BME280;32131;53.454;-6.180;2023-03-21T06:48:43;99924.94;;;9.22;100.00
46430;BME280;32131;53.454;-6.180;2023-03-21T06:51:12;99924.94;;;9.19;100.00
46430;BME280;32131;53.454;-6.180;2023-03-21T06:53:41;99925.69;;;9.10;100.00
46430;BME280;32131;53.454;-6.180;2023-03-21T06:56:12;99924.78;;;9.03;100.00
46430;BME280;32131;53.454;-6.180;2023-03-21T06:58:41;99944.50;;;9.00;100.00
46430;BME280;32131;53.454;-6.180;2023-03-21T07:01:09;99936.81;;;9.01;100.00
46430;BME280;32131;53.454;-6.180;2023-03-21T07:03:40;99941.16;;;9.11;100.00
46430;BME280;32131;53.454;-6.180;2023-03-21T07:06:10;99949.84;;;9.24;100.00
46430;BME280;32131;53.454;-6.180;2023-03-21T07:08:39;99951.66;;;9.33;100.00
46430;BME280;32131;53.454;-6.180;2023-03-21T07:11:08;99957.69;;;9.38;100.00
46430;BME280;32131;53.454;-6.180;2023-03-21T07:13:36;99943.94;;;9.33;100.00
46430;BME280;32131;53.454;-6.180;2023-03-21T07:16:06;99955.88;;;9.26;100.00
46430;BME280;32131;53.454;-6.180;2023-03-21T07:18:34;99957.56;;;9.23;100.00
46430;BME280;32131;53.454;-6.180;2023-03-21T07:21:04;99961.84;;;9.21;100.00
46430;BME280;32131;53.454;-6.180;2023-03-21T07:23:33;99957.53;;;9.20;100.00
46430;BME280;32131;53.454;-6.180;2023-03-21T07:26:01;99958.44;;;9.22;100.00
46430;BME280;32131;53.454;-6.180;2023-03-21T07:28:29;99964.47;;;9.24;100.00
46430;BME280;32131;53.454;-6.180;2023-03-21T07:30:59;99976.66;;;9.43;100.00
46430;BME280;32131;53.454;-6.180;2023-03-21T07:33:28;99978.50;;;9.60;100.00
46430;BME280;32131;53.454;-6.180;2023-03-21T07:35:57;99980.22;;;9.66;100.00
46430;BME280;32131;53.454;-6.180;2023-03-21T07:38:27;99983.72;;;9.72;100.00
46430;BME280;32131;53.454;-6.180;2023-03-21T07:40:58;99994.97;;;9.84;100.00
46430;BME280;32131;53.454;-6.180;2023-03-21T07:43:26;99993.34;;;10.00;100.00
46430;BME280;32131;53.454;-6.180;2023-03-21T07:45:58;99992.53;;;10.12;100.00
46430;BME280;32131;53.454;-6.180;2023-03-21T07:48:27;100002.00;;;10.13;100.00
46430;BME280;32131;53.454;-6.180;2023-03-21T07:50:56;99994.19;;;9.97;100.00
46430;BME280;32131;53.454;-6.180;2023-03-21T07:53:24;100002.72;;;9.87;100.00
46430;BME280;32131;53.454;-6.180;2023-03-21T07:55:54;100009.63;;;9.91;100.00
46430;BME280;32131;53.454;-6.180;2023-03-21T07:58:22;100014.03;;;10.06;100.00
46430;BME280;32131;53.454;-6.180;2023-03-21T08:00:50;100015.00;;;10.25;100.00
46430;BME280;32131;53.454;-6.180;2023-03-21T08:03:19;100028.00;;;10.41;100.00
46430;BME280;32131;53.454;-6.180;2023-03-21T08:05:49;100026.31;;;10.47;100.00
46430;BME280;32131;53.454;-6.180;2023-03-21T08:08:17;100033.22;;;10.53;100.00
46430;BME280;32131;53.454;-6.180;2023-03-21T08:10:46;100036.66;;;10.55;100.00
46430;BME280;32131;53.454;-6.180;2023-03-21T08:13:15;100040.09;;;10.54;100.00
46430;BME280;32131;53.454;-6.180;2023-03-21T08:15:43;100044.41;;;10.55;100.00
46430;BME280;32131;53.454;-6.180;2023-03-21T08:18:13;100040.06;;;10.42;100.00
46430;BME280;32131;53.454;-6.180;2023-03-21T08:20:42;100035.66;;;10.31;100.00
46430;BME280;32131;53.454;-6.180;2023-03-21T08:23:12;100028.78;;;10.32;100.00
46430;BME280;32131;53.454;-6.180;2023-03-21T08:25:40;100023.72;;;10.43;100.00
46430;BME280;32131;53.454;-6.180;2023-03-21T08:28:08;100009.97;;;10.50;100.00
46430;BME280;32131;53.454;-6.180;2023-03-21T08:30:38;100015.19;;;10.65;100.00
46430;BME280;32131;53.454;-6.180;2023-03-21T08:33:06;100011.81;;;10.91;100.00
46430;BME280;32131;53.454;-6.180;2023-03-21T08:35:34;100008.41;;;10.92;98.07
46430;BME280;32131;53.454;-6.180;2023-03-21T08:38:06;100004.09;;;11.08;97.25
46430;BME280;32131;53.454;-6.180;2023-03-21T08:40:35;100012.75;;;11.24;96.06
46430;BME280;32131;53.454;-6.180;2023-03-21T08:43:03;100015.34;;;11.18;93.85
46430;BME280;32131;53.454;-6.180;2023-03-21T08:45:34;100025.66;;;11.20;93.77
46430;BME280;32131;53.454;-6.180;2023-03-21T08:48:04;100018.78;;;11.17;92.78
46430;BME280;32131;53.454;-6.180;2023-03-21T08:50:33;100023.09;;;11.12;91.88
46430;BME280;32131;53.454;-6.180;2023-03-21T08:53:01;100037.69;;;11.13;90.23
46430;BME280;32131;53.454;-6.180;2023-03-21T08:55:29;100023.91;;;11.14;89.01
46430;BME280;32131;53.454;-6.180;2023-03-21T08:57:59;100030.81;;;11.20;88.63
46430;BME280;32131;53.454;-6.180;2023-03-21T09:00:27;100030.84;;;11.38;86.79
46430;BME280;32131;53.454;-6.180;2023-03-21T09:02:56;100037.72;;;11.38;85.99
46430;BME280;32131;53.454;-6.180;2023-03-21T09:05:28;100039.44;;;11.14;86.22
46430;BME280;32131;53.454;-6.180;2023-03-21T09:07:59;100040.22;;;10.87;87.20
46430;BME280;32131;53.454;-6.180;2023-03-21T09:10:29;100042.81;;;10.93;87.30
46430;BME280;32131;53.454;-6.180;2023-03-21T09:12:57;100051.47;;;11.03;87.62
46430;BME280;32131;53.454;-6.180;2023-03-21T09:15:31;100044.56;;;10.98;87.44
46430;BME280;32131;53.454;-6.180;2023-03-21T09:18:01;100047.19;;;11.15;87.42
46430;BME280;32131;53.454;-6.180;2023-03-21T09:20:41;100046.31;;;11.09;87.63
46430;BME280;32131;53.454;-6.180;2023-03-21T09:23:09;100055.75;;;10.94;88.10
46430;BME280;32131;53.454;-6.180;2023-03-21T09:25:38;100045.34;;;10.71;88.42
46430;BME280;32131;53.454;-6.180;2023-03-21T09:28:07;100041.03;;;10.76;89.27
46430;BME280;32131;53.454;-6.180;2023-03-21T09:30:39;100037.72;;;11.19;88.34
46430;BME280;32131;53.454;-6.180;2023-03-21T09:33:08;100042.06;;;11.48;86.94
46430;BME280;32131;53.454;-6.180;2023-03-21T09:35:41;100040.34;;;11.84;85.11
46430;BME280;32131;53.454;-6.180;2023-03-21T09:38:10;100041.22;;;12.02;83.50
46430;BME280;32131;53.454;-6.180;2023-03-21T09:40:51;100037.69;;;12.21;82.21
46430;BME280;32131;53.454;-6.180;2023-03-21T09:43:35;100052.34;;;12.39;81.69
46430;BME280;32131;53.454;-6.180;2023-03-21T09:46:26;100050.53;;;12.63;81.44
46430;BME280;32131;53.454;-6.180;2023-03-21T09:49:00;100040.13;;;12.76;79.19
46430;BME280;32131;53.454;-6.180;2023-03-21T09:51:34;100039.19;;;12.87;78.08
46430;BME280;32131;53.454;-6.180;2023-03-21T09:54:06;100037.47;;;12.83;76.96
46430;BME280;32131;53.454;-6.180;2023-03-21T09:56:42;100038.31;;;12.88;77.21
46430;BME280;32131;53.454;-6.180;2023-03-21T09:59:19;100027.91;;;12.96;76.19
46430;BME280;32131;53.454;-6.180;2023-03-21T10:01:48;100023.56;;;13.00;75.46
46430;BME280;32131;53.454;-6.180;2023-03-21T10:04:17;100027.00;;;13.03;75.05
46430;BME280;32131;53.454;-6.180;2023-03-21T10:06:55;100024.28;;;13.27;74.62
46430;BME280;32131;53.454;-6.180;2023-03-21T10:09:27;100019.03;;;13.33;74.17
46430;BME280;32131;53.454;-6.180;2023-03-21T10:12:02;100026.81;;;13.36;74.04
46430;BME280;32131;53.454;-6.180;2023-03-21T10:14:34;100020.72;;;13.43;74.01
46430;BME280;32131;53.454;-6.180;2023-03-21T10:17:08;100024.91;;;13.63;73.34
46430;BME280;32131;53.454;-6.180;2023-03-21T10:19:42;100013.53;;;13.76;72.01
46430;BME280;32131;53.454;-6.180;2023-03-21T10:22:13;100023.72;;;13.96;71.75
46430;BME280;32131;53.454;-6.180;2023-03-21T10:24:41;100027.41;;;13.72;71.41
46430;BME280;32131;53.454;-6.180;2023-03-21T10:27:14;100015.28;;;13.73;71.69
46430;BME280;32131;53.454;-6.180;2023-03-21T10:29:43;100010.97;;;13.75;71.14
46430;BME280;32131;53.454;-6.180;2023-03-21T10:32:14;100008.94;;;14.03;70.72
46430;BME280;32131;53.454;-6.180;2023-03-21T10:34:48;100004.31;;;14.31;69.61
46430;BME280;32131;53.454;-6.180;2023-03-21T10:37:19;99997.22;;;14.44;68.77
46430;BME280;32131;53.454;-6.180;2023-03-21T10:39:49;100004.78;;;14.68;68.53
46430;BME280;32131;53.454;-6.180;2023-03-21T10:42:20;99999.50;;;14.72;67.42
46430;BME280;32131;53.454;-6.180;2023-03-21T10:44:50;100009.16;;;14.59;67.95
46430;BME280;32131;53.454;-6.180;2023-03-21T10:47:20;100006.69;;;14.49;68.32
46430;BME280;32131;53.454;-6.180;2023-03-21T10:49:49;100006.13;;;14.23;68.58
46430;BME280;32131;53.454;-6.180;2023-03-21T10:52:41;100010.66;;;14.04;69.45
46430;BME280;32131;53.454;-6.180;2023-03-21T10:55:20;100018.47;;;14.01;70.24
46430;BME280;32131;53.454;-6.180;2023-03-21T10:57:54;100020.88;;;14.20;70.44
46430;BME280;32131;53.454;-6.180;2023-03-21T11:00:27;100014.16;;;14.76;69.23
46430;BME280;32131;53.454;-6.180;2023-03-21T11:02:57;99987.41;;;14.71;68.67
46430;BME280;32131;53.454;-6.180;2023-03-21T11:05:33;99996.13;;;14.64;69.10
46430;BME280;32131;53.454;-6.180;2023-03-21T11:08:10;99993.75;;;14.45;69.58
46430;BME280;32131;53.454;-6.180;2023-03-21T11:10:54;100003.91;;;14.64;70.05
46430;BME280;32131;53.454;-6.180;2023-03-21T11:13:32;100005.91;;;14.43;69.88
46430;BME280;32131;53.454;-6.180;2023-03-21T11:16:07;100014.69;;;15.00;67.12
46430;BME280;32131;53.454;-6.180;2023-03-21T11:18:41;100005.91;;;15.11;66.78
46430;BME280;32131;53.454;-6.180;2023-03-21T11:21:10;100002.03;;;14.78;64.58
46430;BME280;32131;53.454;-6.180;2023-03-21T11:23:43;100003.41;;;15.04;64.21
46430;BME280;32131;53.454;-6.180;2023-03-21T11:26:18;100008.53;;;15.09;63.94
46430;BME280;32131;53.454;-6.180;2023-03-21T11:28:49;100011.13;;;15.07;62.94
46430;BME280;32131;53.454;-6.180;2023-03-21T11:31:18;100007.59;;;15.15;63.45
46430;BME280;32131;53.454;-6.180;2023-03-21T11:33:50;100004.75;;;15.29;63.22
46430;BME280;32131;53.454;-6.180;2023-03-21T11:36:33;99998.97;;;15.64;61.72
46430;BME280;32131;53.454;-6.180;2023-03-21T11:39:29;99995.97;;;15.89;59.80
46430;BME280;32131;53.454;-6.180;2023-03-21T11:41:57;99999.09;;;15.56;59.67
46430;BME280;32131;53.454;-6.180;2023-03-21T11:44:31;100003.38;;;15.59;59.35
46430;BME280;32131;53.454;-6.180;2023-03-21T11:47:02;100003.38;;;15.59;59.10
46430;BME280;32131;53.454;-6.180;2023-03-21T11:49:30;100001.44;;;15.74;58.19
46430;BME280;32131;53.454;-6.180;2023-03-21T11:52:13;100006.56;;;15.77;58.58
46430;BME280;32131;53.454;-6.180;2023-03-21T11:55:07;100009.47;;;15.60;58.25
46430;BME280;32131;53.454;-6.180;2023-03-21T11:57:43;100019.09;;;15.53;58.27
46430;BME280;32131;53.454;-6.180;2023-03-21T12:00:17;100013.94;;;15.50;58.75
46430;BME280;32131;53.454;-6.180;2023-03-21T12:03:06;100015.13;;;15.30;59.35
46430;BME280;32131;53.454;-6.180;2023-03-21T12:05:42;100009.28;;;15.16;59.88
46430;BME280;32131;53.454;-6.180;2023-03-21T12:08:25;100028.53;;;15.02;60.75
46430;BME280;32131;53.454;-6.180;2023-03-21T12:11:03;100023.56;;;14.87;61.66
46430;BME280;32131;53.454;-6.180;2023-03-21T12:13:41;100017.13;;;15.11;61.88
46430;BME280;32131;53.454;-6.180;2023-03-21T12:16:40;100022.88;;;15.33;61.04
46430;BME280;32131;53.454;-6.180;2023-03-21T12:19:24;100014.94;;;15.43;58.63
46430;BME280;32131;53.454;-6.180;2023-03-21T12:22:05;100009.34;;;15.66;58.75
46430;BME280;32131;53.454;-6.180;2023-03-21T12:24:41;100008.50;;;15.65;57.82
46430;BME280;32131;53.454;-6.180;2023-03-21T12:27:22;100016.38;;;15.61;57.56
46430;BME280;32131;53.454;-6.180;2023-03-21T12:30:04;100013.81;;;15.57;57.42
46430;BME280;32131;53.454;-6.180;2023-03-21T12:32:48;100018.13;;;15.60;57.18
46430;BME280;32131;53.454;-6.180;2023-03-21T12:35:26;100005.78;;;15.71;57.05
46430;BME280;32131;53.454;-6.180;2023-03-21T12:38:07;100010.00;;;15.79;57.23
46430;BME280;32131;53.454;-6.180;2023-03-21T12:41:02;100008.19;;;15.85;56.94
46430;BME280;32131;53.454;-6.180;2023-03-21T12:43:44;100000.34;;;15.87;57.47
46430;BME280;32131;53.454;-6.180;2023-03-21T12:46:19;100007.06;;;15.47;57.81
46430;BME280;32131;53.454;-6.180;2023-03-21T12:48:51;100000.81;;;15.01;58.80
46430;BME280;32131;53.454;-6.180;2023-03-21T12:51:24;99996.59;;;14.94;60.04
46430;BME280;32131;53.454;-6.180;2023-03-21T12:53:59;99996.53;;;14.99;59.78
46430;BME280;32131;53.454;-6.180;2023-03-21T12:56:31;99993.00;;;15.03;59.67
46430;BME280;32131;53.454;-6.180;2023-03-21T12:59:10;99984.19;;;15.15;59.00
46430;BME280;32131;53.454;-6.180;2023-03-21T13:01:40;99977.00;;;15.29;58.80
46430;BME280;32131;53.454;-6.180;2023-03-21T13:04:28;99988.91;;;15.43;58.90
46430;BME280;32131;53.454;-6.180;2023-03-21T13:07:02;99980.13;;;15.50;58.84
46430;BME280;32131;53.454;-6.180;2023-03-21T13:09:34;99976.50;;;15.60;58.18
46430;BME280;32131;53.454;-6.180;2023-03-21T13:12:15;99964.16;;;15.70;57.68
46430;BME280;32131;53.454;-6.180;2023-03-21T13:14:58;99957.28;;;15.67;57.79
46430;BME280;32131;53.454;-6.180;2023-03-21T13:17:56;99951.50;;;15.51;57.97